EGNV/MME METAR and TAF weather

Enter ICAO airport designator
Station Type Date Time Source
EGNV METAR 2018/07/21 21:20 UTC NOAA

EGNV 212120Z 20005KT 9999 FEW035 16/13 Q1014


Station Type Date Time Source
EGNV Decoded METAR 2018/07/21 21:20 UTC NOAA

Tees-Side, United Kingdom (EGNV) 54-31N 001-25W
Jul 21, 2018 - 05:20 PM EDT / 2018.07.21 2120 UTC
Wind: from the SSW (200 degrees) at 6 MPH (5 KT):0
Visibility: greater than 7 mile(s):0
Sky conditions: mostly clear
Temperature: 60 F (16 C)
Dew Point: 55 F (13 C)
Relative Humidity: 82%
Pressure (altimeter): 29.94 in. Hg (1014 hPa)
ob: EGNV 212120Z 20005KT 9999 FEW035 16/13 Q1014
cycle: 21

Station Type Date Time Source
EGNV TAF 2016/01/23 12:00 UTC NOAA

TAF EGNV 231059Z 2312/2321 18008KT 9999 FEW030 PROB40 2319/2321 6000 RADZ BKN014


Example: see airport list